Time;durP1;ratioP1;P1;durP2;ratioP2;P2;SDS_P1;SDS_P2;PMS_P1;PMS_P2;Temp;Humidity;BMP_temperature;BMP_pressure;BME280_temperature;BME280_humidity;BME280_pressure;Samples;Min_cycle;Max_cycle;Signal;HPM_P1;HPM_P2
2023/01/10 00:01:45;;;;;;;0.52;0.43;;;;;;;;;;5050918;28;20045;-42
2023/01/10 00:04:11;;;;;;;0.60;0.50;;;;;;;;;;5051212;28;20450;-42
2023/01/10 00:06:36;;;;;;;0.32;0.32;;;;;;;;;;5051411;28;20043;-43
2023/01/10 00:09:02;;;;;;;0.98;0.85;;;;;;;;;;5051176;28;20041;-42
2023/01/10 00:14:11;;;;;;;0.52;0.30;;;;;;;;;;5049886;28;20075;-42
2023/01/10 00:16:38;;;;;;;1.42;0.40;;;;;;;;;;5053083;28;20033;-42
2023/01/10 00:19:04;;;;;;;0.22;0.22;;;;;;;;;;5054844;28;20463;-42
2023/01/10 00:21:32;;;;;;;3.05;1.02;;;;;;;;;;5054935;28;20025;-42
2023/01/10 00:24:07;;;;;;;0.90;0.50;;;;;;;;;;5054713;28;20041;-42
2023/01/10 00:26:33;;;;;;;5.22;1.33;;;;;;;;;;5054846;28;20017;-42
2023/01/10 00:28:58;;;;;;;0.93;0.38;;;;;;;;;;5054655;28;20406;-42
2023/01/10 00:31:24;;;;;;;0.30;0.30;;;;;;;;;;5054666;28;20063;-43
2023/01/10 00:33:49;;;;;;;0.50;0.50;;;;;;;;;;5054600;28;20515;-42
2023/01/10 00:36:14;;;;;;;1.13;0.60;;;;;;;;;;5054626;28;20029;-42
2023/01/10 00:38:40;;;;;;;0.57;0.35;;;;;;;;;;5054515;28;20025;-42
2023/01/10 00:43:55;;;;;;;0.40;0.40;;;;;;;;;;5054766;28;20063;-42
2023/01/10 00:43:57;;;;;;;0.57;0.57;;;;;;;;;;5054584;28;20071;-43
2023/01/10 00:46:23;;;;;;;0.55;0.55;;;;;;;;;;5054413;28;20102;-42
2023/01/10 00:48:48;;;;;;;1.65;0.95;;;;;;;;;;5054270;28;20467;-42
2023/01/10 00:51:14;;;;;;;0.75;0.50;;;;;;;;;;5054240;28;20399;-42
2023/01/10 00:53:39;;;;;;;3.20;0.60;;;;;;;;;;5054366;28;20066;-42
2023/01/10 00:56:05;;;;;;;0.55;0.50;;;;;;;;;;5052869;28;20064;-42
2023/01/10 00:58:32;;;;;;;0.50;0.50;;;;;;;;;;5054171;28;20395;-42
2023/01/10 01:00:58;;;;;;;1.23;0.55;;;;;;;;;;5053998;28;20029;-42
2023/01/10 01:03:23;;;;;;;0.30;0.28;;;;;;;;;;5054669;28;20031;-42
2023/01/10 01:05:49;;;;;;;0.50;0.50;;;;;;;;;;5054257;28;20486;-42
2023/01/10 01:08:15;;;;;;;0.55;0.30;;;;;;;;;;5054246;28;20013;-42
2023/01/10 01:10:40;;;;;;;0.40;0.40;;;;;;;;;;5054357;28;20041;-42
2023/01/10 01:13:07;;;;;;;0.93;0.50;;;;;;;;;;5053812;28;20100;-42
2023/01/10 01:15:33;;;;;;;0.20;0.20;;;;;;;;;;5054166;28;20387;-42
2023/01/10 01:17:59;;;;;;;2.38;0.73;;;;;;;;;;5054065;28;20017;-42
2023/01/10 01:20:24;;;;;;;0.75;0.70;;;;;;;;;;5054028;28;20676;-43
2023/01/10 01:22:50;;;;;;;0.57;0.40;;;;;;;;;;5052457;28;20425;-42
2023/01/10 01:25:15;;;;;;;1.05;0.82;;;;;;;;;;5053752;28;20041;-42
2023/01/10 01:27:41;;;;;;;0.73;0.57;;;;;;;;;;5052362;28;20024;-42
2023/01/10 01:30:07;;;;;;;0.75;0.60;;;;;;;;;;5053503;28;20087;-42
2023/01/10 01:32:33;;;;;;;0.98;0.88;;;;;;;;;;5053637;28;20029;-42
2023/01/10 01:34:58;;;;;;;1.45;0.65;;;;;;;;;;5053370;28;20033;-42
2023/01/10 01:37:24;;;;;;;0.88;0.85;;;;;;;;;;5053522;28;20074;-42
2023/01/10 01:39:49;;;;;;;0.90;0.60;;;;;;;;;;5053321;28;20033;-42
2023/01/10 01:42:28;;;;;;;0.45;0.45;;;;;;;;;;5053673;28;20032;-42
2023/01/10 01:45:12;;;;;;;1.65;1.27;;;;;;;;;;5053498;28;20437;-42
2023/01/10 01:47:46;;;;;;;1.08;0.98;;;;;;;;;;5053497;28;20021;-43
2023/01/10 01:50:14;;;;;;;1.10;0.68;;;;;;;;;;5053401;28;20040;-42
2023/01/10 01:52:39;;;;;;;1.25;1.00;;;;;;;;;;5053275;28;20071;-42
2023/01/10 01:55:05;;;;;;;0.80;0.80;;;;;;;;;;5053082;28;20032;-42
2023/01/10 01:57:31;;;;;;;0.77;0.60;;;;;;;;;;5053149;28;20376;-45
2023/01/10 01:59:59;;;;;;;0.77;0.77;;;;;;;;;;5052921;28;20502;-42
2023/01/10 02:02:30;;;;;;;1.20;0.65;;;;;;;;;;5052864;28;20044;-42
2023/01/10 02:04:59;;;;;;;2.85;1.10;;;;;;;;;;5052888;28;20168;-42
2023/01/10 02:07:26;;;;;;;0.52;0.52;;;;;;;;;;5053172;28;20009;-42
2023/01/10 02:09:54;;;;;;;0.90;0.80;;;;;;;;;;5052729;28;20075;-42
2023/01/10 02:12:20;;;;;;;0.60;0.60;;;;;;;;;;5053060;28;20108;-42
2023/01/10 02:14:48;;;;;;;1.52;0.70;;;;;;;;;;5052753;28;20543;-42
2023/01/10 02:17:14;;;;;;;1.83;1.02;;;;;;;;;;5052667;28;20021;-42
2023/01/10 02:20:02;;;;;;;1.23;0.90;;;;;;;;;;5051387;28;20025;-42
2023/01/10 02:22:40;;;;;;;1.75;0.70;;;;;;;;;;5048865;28;20040;-43
2023/01/10 02:25:12;;;;;;;1.50;0.85;;;;;;;;;;5052376;28;20479;-42
2023/01/10 02:27:37;;;;;;;1.30;1.10;;;;;;;;;;5052479;28;20063;-42
2023/01/10 02:30:02;;;;;;;1.10;1.00;;;;;;;;;;5052332;28;20056;-42
2023/01/10 02:32:28;;;;;;;1.02;0.70;;;;;;;;;;5051225;28;20059;-42
2023/01/10 02:34:53;;;;;;;2.55;1.60;;;;;;;;;;5050999;28;20031;-42
2023/01/10 02:37:24;;;;;;;3.55;1.65;;;;;;;;;;5052336;28;20029;-42
2023/01/10 02:39:49;;;;;;;2.40;1.55;;;;;;;;;;5051736;28;20518;-42
2023/01/10 02:42:24;;;;;;;2.53;1.25;;;;;;;;;;5052631;28;20029;-42
2023/01/10 02:44:53;;;;;;;1.42;1.33;;;;;;;;;;5052454;28;20637;-42
2023/01/10 02:47:19;;;;;;;1.60;1.45;;;;;;;;;;5050785;28;20024;-42
2023/01/10 02:49:46;;;;;;;1.98;1.27;;;;;;;;;;5052306;28;20041;-42
2023/01/10 02:52:14;;;;;;;2.30;1.42;;;;;;;;;;5052276;28;20017;-42
2023/01/10 02:54:39;;;;;;;3.58;1.63;;;;;;;;;;5051999;28;20047;-43
2023/01/10 02:57:05;;;;;;;1.88;1.45;;;;;;;;;;5050516;28;20029;-42
2023/01/10 02:59:42;;;;;;;2.38;1.17;;;;;;;;;;5051906;28;20037;-42
2023/01/10 03:02:25;;;;;;;4.85;1.98;;;;;;;;;;5050374;28;20408;-42
2023/01/10 03:05:09;;;;;;;2.10;1.63;;;;;;;;;;5051804;28;20037;-42
2023/01/10 03:07:41;;;;;;;2.50;1.73;;;;;;;;;;5050426;28;20068;-42
2023/01/10 03:10:13;;;;;;;1.67;1.30;;;;;;;;;;5050355;28;20075;-42
2023/01/10 03:12:47;;;;;;;2.65;1.80;;;;;;;;;;5051759;28;20032;-43
2023/01/10 03:15:15;;;;;;;2.70;2.40;;;;;;;;;;5050468;28;20482;-42
2023/01/10 03:17:42;;;;;;;4.50;1.98;;;;;;;;;;5052057;28;20162;-42
2023/01/10 03:20:08;;;;;;;3.45;2.33;;;;;;;;;;5051581;28;20036;-42
2023/01/10 03:22:36;;;;;;;2.38;1.67;;;;;;;;;;5051785;28;20024;-42
2023/01/10 03:25:03;;;;;;;2.13;1.73;;;;;;;;;;5051525;28;20040;-42
2023/01/10 03:27:33;;;;;;;1.85;1.60;;;;;;;;;;5051816;28;20371;-42
2023/01/10 03:30:05;;;;;;;3.17;2.10;;;;;;;;;;5051538;28;20037;-42
2023/01/10 03:32:31;;;;;;;2.95;1.30;;;;;;;;;;5051487;28;20029;-42
2023/01/10 03:34:58;;;;;;;4.53;2.03;;;;;;;;;;5051571;28;20028;-42
2023/01/10 03:37:30;;;;;;;4.10;2.50;;;;;;;;;;5051389;28;20032;-42
2023/01/10 03:40:14;;;;;;;3.58;2.47;;;;;;;;;;5051620;28;20408;-43
2023/01/10 03:45:42;;;;;;;3.83;2.67;;;;;;;;;;5051654;28;20103;-42
2023/01/10 03:48:09;;;;;;;3.05;2.25;;;;;;;;;;5051180;28;20017;-42
2023/01/10 03:50:35;;;;;;;2.05;1.80;;;;;;;;;;5051948;28;20048;-42
2023/01/10 03:53:00;;;;;;;3.63;2.17;;;;;;;;;;5055700;28;20028;-42
2023/01/10 03:55:26;;;;;;;3.30;1.95;;;;;;;;;;5055426;28;20487;-42
2023/01/10 03:57:52;;;;;;;2.78;2.33;;;;;;;;;;5055470;28;20021;-42
2023/01/10 04:00:18;;;;;;;2.67;1.73;;;;;;;;;;5055287;28;20036;-42
2023/01/10 04:02:43;;;;;;;2.38;1.77;;;;;;;;;;5055103;28;20041;-42
2023/01/10 04:05:09;;;;;;;3.72;2.72;;;;;;;;;;5055673;28;20033;-42
2023/01/10 04:07:34;;;;;;;1.60;1.50;;;;;;;;;;5055144;28;20103;-42
2023/01/10 04:10:00;;;;;;;4.28;2.60;;;;;;;;;;5055287;28;20037;-42
2023/01/10 04:12:25;;;;;;;3.67;2.58;;;;;;;;;;5055023;28;20021;-42
2023/01/10 04:14:50;;;;;;;3.42;1.70;;;;;;;;;;5055261;28;20086;-42
2023/01/10 04:17:16;;;;;;;3.58;1.90;;;;;;;;;;5055023;28;20475;-43
2023/01/10 04:19:42;;;;;;;3.50;2.30;;;;;;;;;;5055123;28;20035;-42
2023/01/10 04:22:07;;;;;;;3.17;2.55;;;;;;;;;;5054834;28;20059;-42
2023/01/10 04:24:33;;;;;;;3.33;1.90;;;;;;;;;;5054831;28;20025;-42
2023/01/10 04:26:58;;;;;;;5.45;1.85;;;;;;;;;;5054703;28;20043;-42
2023/01/10 04:29:24;;;;;;;4.22;2.58;;;;;;;;;;5054688;28;20037;-42
2023/01/10 04:31:49;;;;;;;3.78;2.00;;;;;;;;;;5054599;28;20074;-42
2023/01/10 04:34:15;;;;;;;3.53;1.98;;;;;;;;;;5054679;28;20103;-42
2023/01/10 04:36:41;;;;;;;3.22;2.13;;;;;;;;;;5054681;28;20020;-42
2023/01/10 04:39:07;;;;;;;2.17;1.92;;;;;;;;;;5054488;28;20021;-42
2023/01/10 04:41:32;;;;;;;1.90;1.58;;;;;;;;;;5054558;28;20025;-42
2023/01/10 04:43:57;;;;;;;2.97;1.88;;;;;;;;;;5054648;28;20029;-42
2023/01/10 04:46:23;;;;;;;2.47;1.42;;;;;;;;;;5054390;28;20021;-42
2023/01/10 04:48:48;;;;;;;2.92;1.95;;;;;;;;;;5054239;28;20333;-42
2023/01/10 04:51:14;;;;;;;2.90;1.92;;;;;;;;;;5054572;28;20036;-42
2023/01/10 04:53:40;;;;;;;1.67;1.45;;;;;;;;;;5054302;28;20502;-42
2023/01/10 04:56:06;;;;;;;2.45;1.80;;;;;;;;;;5054370;28;20157;-41
2023/01/10 04:58:35;;;;;;;3.15;2.67;;;;;;;;;;5054552;28;20025;-42
2023/01/10 05:01:08;;;;;;;3.60;1.70;;;;;;;;;;5053927;28;20028;-42
2023/01/10 05:03:33;;;;;;;;;;;;;;;;;;5054737;28;20449;-42
2023/01/10 05:05:59;;;;;;;3.85;1.63;;;;;;;;;;5053959;28;19924;-42
2023/01/10 05:08:24;;;;;;;3.50;2.58;;;;;;;;;;5054236;28;20037;-42
2023/01/10 05:10:50;;;;;;;3.40;1.75;;;;;;;;;;5052601;28;20079;-42
2023/01/10 05:13:15;;;;;;;4.18;1.80;;;;;;;;;;5053984;28;20056;-42
2023/01/10 05:15:40;;;;;;;2.38;1.60;;;;;;;;;;5053926;28;20021;-42
2023/01/10 05:18:06;;;;;;;3.55;1.88;;;;;;;;;;5053814;28;20078;-42
2023/01/10 05:20:31;;;;;;;4.93;1.95;;;;;;;;;;5053891;28;20043;-42
2023/01/10 05:22:57;;;;;;;2.38;1.88;;;;;;;;;;5053641;28;20059;-42
2023/01/10 05:25:22;;;;;;;3.65;1.67;;;;;;;;;;5053830;28;20112;-42
2023/01/10 05:27:48;;;;;;;2.92;1.73;;;;;;;;;;5053567;28;20426;-42
2023/01/10 05:30:13;;;;;;;3.67;2.08;;;;;;;;;;5052259;28;20108;-42
2023/01/10 05:32:39;;;;;;;1.88;1.40;;;;;;;;;;5053963;28;20025;-42
2023/01/10 05:35:05;;;;;;;3.70;1.88;;;;;;;;;;5053444;28;20531;-42
2023/01/10 05:37:30;;;;;;;2.22;2.00;;;;;;;;;;5053420;28;20075;-42
2023/01/10 05:39:55;;;;;;;3.03;2.10;;;;;;;;;;5053430;28;20074;-42
2023/01/10 05:42:21;;;;;;;3.60;2.50;;;;;;;;;;5053759;28;20052;-42
2023/01/10 05:44:46;;;;;;;3.55;2.28;;;;;;;;;;5053586;28;20478;-42
2023/01/10 05:47:11;;;;;;;2.60;1.63;;;;;;;;;;5053298;28;20171;-42
2023/01/10 05:49:37;;;;;;;3.58;2.22;;;;;;;;;;5053226;28;20103;-42
2023/01/10 05:52:02;;;;;;;4.80;2.75;;;;;;;;;;5053306;28;20036;-42
2023/01/10 05:54:28;;;;;;;3.20;1.98;;;;;;;;;;5053276;28;20631;-42
2023/01/10 05:56:54;;;;;;;2.72;1.73;;;;;;;;;;5053073;28;20033;-42
2023/01/10 05:59:19;;;;;;;4.03;2.10;;;;;;;;;;5053044;28;20024;-42
2023/01/10 06:01:45;;;;;;;4.10;2.42;;;;;;;;;;5052905;28;20403;-42
2023/01/10 06:04:10;;;;;;;5.25;1.58;;;;;;;;;;5053288;28;20079;-42
2023/01/10 06:06:36;;;;;;;6.40;2.45;;;;;;;;;;5052842;28;20043;-42
2023/01/10 06:09:01;;;;;;;3.10;2.20;;;;;;;;;;5052802;28;20021;-42
2023/01/10 06:11:29;;;;;;;4.75;2.70;;;;;;;;;;5052827;28;20041;-42
2023/01/10 06:13:55;;;;;;;2.70;2.25;;;;;;;;;;5052341;28;20040;-42
2023/01/10 06:16:21;;;;;;;4.18;2.25;;;;;;;;;;5052770;28;20458;-45
2023/01/10 06:18:46;;;;;;;4.60;2.67;;;;;;;;;;5052663;28;20112;-42
2023/01/10 06:21:12;;;;;;;3.35;2.30;;;;;;;;;;5052900;28;20368;-42
2023/01/10 06:23:38;;;;;;;3.50;2.00;;;;;;;;;;5052605;28;20024;-42
2023/01/10 06:26:04;;;;;;;4.47;3.20;;;;;;;;;;5051292;28;20033;-42
2023/01/10 06:28:29;;;;;;;3.00;2.03;;;;;;;;;;5052554;28;20016;-42
2023/01/10 06:30:55;;;;;;;3.72;2.40;;;;;;;;;;5052544;28;20037;-42
2023/01/10 06:33:20;;;;;;;2.20;1.90;;;;;;;;;;5052422;28;20456;-42
2023/01/10 06:35:47;;;;;;;4.50;3.05;;;;;;;;;;5052605;28;20429;-42
2023/01/10 06:38:12;;;;;;;4.25;1.90;;;;;;;;;;5052314;28;20017;-42
2023/01/10 06:40:38;;;;;;;4.32;2.38;;;;;;;;;;5052564;28;20074;-42
2023/01/10 06:43:03;;;;;;;3.78;2.08;;;;;;;;;;5052440;28;20029;-42
2023/01/10 06:45:29;;;;;;;3.90;2.50;;;;;;;;;;5052508;28;20387;-44
2023/01/10 06:47:54;;;;;;;3.15;1.98;;;;;;;;;;5051956;28;20024;-42
2023/01/10 06:50:20;;;;;;;4.78;2.67;;;;;;;;;;5052044;28;20033;-42
2023/01/10 06:52:45;;;;;;;4.43;1.40;;;;;;;;;;5052074;28;20029;-42
2023/01/10 06:55:11;;;;;;;6.47;2.83;;;;;;;;;;5051857;28;20045;-43
2023/01/10 06:57:37;;;;;;;3.90;2.33;;;;;;;;;;5052040;28;20104;-42
2023/01/10 07:00:07;;;;;;;5.90;3.60;;;;;;;;;;5052142;28;20039;-42
2023/01/10 07:02:32;;;;;;;3.13;2.67;;;;;;;;;;5051609;28;20056;-42
2023/01/10 07:04:58;;;;;;;5.05;2.25;;;;;;;;;;5051847;28;20032;-42
2023/01/10 07:07:23;;;;;;;2.22;1.85;;;;;;;;;;5052067;28;20025;-42
2023/01/10 07:09:49;;;;;;;4.38;2.28;;;;;;;;;;5051571;28;20551;-42
2023/01/10 07:12:14;;;;;;;4.88;2.63;;;;;;;;;;5051767;28;20036;-42
2023/01/10 07:14:39;;;;;;;3.42;2.03;;;;;;;;;;5051983;28;20064;-42
2023/01/10 07:17:05;;;;;;;3.15;1.98;;;;;;;;;;5051770;28;20021;-41
2023/01/10 07:19:31;;;;;;;3.35;2.30;;;;;;;;;;5051893;28;20401;-42
2023/01/10 07:21:56;;;;;;;2.75;2.10;;;;;;;;;;5051837;28;20592;-43
2023/01/10 07:24:21;;;;;;;5.95;2.85;;;;;;;;;;5051599;28;20044;-42
2023/01/10 07:26:47;;;;;;;5.65;1.85;;;;;;;;;;5051445;28;20017;-42
2023/01/10 07:29:12;;;;;;;5.35;2.20;;;;;;;;;;5051364;28;20037;-41
2023/01/10 07:31:38;;;;;;;4.80;2.13;;;;;;;;;;5051675;28;20078;-42
2023/01/10 07:34:03;;;;;;;4.38;2.45;;;;;;;;;;5050080;28;20029;-42
2023/01/10 07:36:28;;;;;;;3.38;2.42;;;;;;;;;;5051397;28;20017;-42
2023/01/10 07:38:54;;;;;;;3.53;2.30;;;;;;;;;;5051284;28;20055;-42
2023/01/10 07:41:20;;;;;;;4.18;2.38;;;;;;;;;;5051639;28;20028;-42
2023/01/10 07:43:46;;;;;;;3.95;1.75;;;;;;;;;;5051342;28;20051;-42
2023/01/10 07:46:11;;;;;;;5.47;2.33;;;;;;;;;;5051384;28;20059;-41
2023/01/10 07:48:37;;;;;;;3.35;2.33;;;;;;;;;;5051642;28;20140;-41
2023/01/10 07:51:03;;;;;;;2.75;2.15;;;;;;;;;;5049890;28;20428;-42
2023/01/10 07:53:28;;;;;;;3.83;1.92;;;;;;;;;;5051538;28;20029;-42
2023/01/10 07:55:57;;;;;;;4.18;2.38;;;;;;;;;;5051141;28;20525;-41
2023/01/10 07:58:23;;;;;;;2.97;2.08;;;;;;;;;;5051440;28;20473;-42
2023/01/10 08:00:49;;;;;;;2.42;1.85;;;;;;;;;;5051138;28;20017;-41
2023/01/10 08:03:15;;;;;;;4.32;2.00;;;;;;;;;;5050936;28;20053;-41
2023/01/10 08:05:41;;;;;;;3.42;2.55;;;;;;;;;;5051094;28;20032;-42
2023/01/10 08:08:07;;;;;;;4.65;1.98;;;;;;;;;;5051042;28;20446;-42
2023/01/10 08:10:33;;;;;;;4.32;2.65;;;;;;;;;;5051219;28;20032;-42
2023/01/10 08:12:59;;;;;;;3.88;2.00;;;;;;;;;;5050981;28;20388;-42
2023/01/10 08:15:25;;;;;;;6.18;2.63;;;;;;;;;;5050981;28;20074;-42
2023/01/10 08:17:50;;;;;;;3.63;2.35;;;;;;;;;;5050965;28;20032;-42
2023/01/10 08:20:16;;;;;;;3.00;2.20;;;;;;;;;;5050933;28;20464;-42
2023/01/10 08:22:41;;;;;;;5.50;2.13;;;;;;;;;;5051310;28;20040;-42
2023/01/10 08:25:07;;;;;;;3.95;1.95;;;;;;;;;;5050922;28;20100;-42
2023/01/10 08:27:32;;;;;;;4.43;2.60;;;;;;;;;;5050841;28;20025;-42
2023/01/10 08:29:58;;;;;;;3.40;2.17;;;;;;;;;;5050741;28;20040;-42
2023/01/10 08:32:24;;;;;;;5.38;2.72;;;;;;;;;;5051213;28;20055;-42
2023/01/10 08:34:49;;;;;;;4.10;1.63;;;;;;;;;;5050740;28;20498;-41
2023/01/10 08:37:15;;;;;;;3.85;2.20;;;;;;;;;;5052645;28;20108;-42
2023/01/10 08:39:40;;;;;;;1.90;1.73;;;;;;;;;;5054715;28;20040;-41
2023/01/10 08:42:05;;;;;;;6.28;3.67;;;;;;;;;;5053226;28;20036;-41
2023/01/10 08:44:31;;;;;;;2.03;1.60;;;;;;;;;;5054541;28;20028;-42
2023/01/10 08:46:57;;;;;;;4.88;2.97;;;;;;;;;;5054296;28;20033;-41
2023/01/10 08:49:22;;;;;;;4.05;1.70;;;;;;;;;;5054338;28;20120;-41
2023/01/10 08:51:48;;;;;;;3.15;1.45;;;;;;;;;;5054988;28;20036;-42
2023/01/10 08:54:13;;;;;;;4.25;2.35;;;;;;;;;;5054251;28;20029;-42
2023/01/10 08:56:39;;;;;;;2.58;2.00;;;;;;;;;;5054559;28;20032;-42
2023/01/10 08:59:05;;;;;;;3.35;2.25;;;;;;;;;;5054435;28;20025;-41
2023/01/10 09:01:31;;;;;;;6.57;1.83;;;;;;;;;;5054035;28;20135;-41
2023/01/10 09:03:56;;;;;;;2.97;1.77;;;;;;;;;;5052825;28;20117;-42
2023/01/10 09:06:23;;;;;;;4.75;2.80;;;;;;;;;;5054097;28;20103;-42
2023/01/10 09:08:48;;;;;;;4.95;2.15;;;;;;;;;;5054089;28;20025;-42
2023/01/10 09:11:13;;;;;;;4.80;2.00;;;;;;;;;;5053891;28;20044;-42
2023/01/10 09:13:39;;;;;;;3.55;2.15;;;;;;;;;;5054316;28;20447;-42
2023/01/10 09:16:05;;;;;;;6.60;2.55;;;;;;;;;;5052471;28;20033;-41
2023/01/10 09:18:30;;;;;;;3.35;1.80;;;;;;;;;;5053883;28;20025;-41
2023/01/10 09:20:56;;;;;;;9.55;2.20;;;;;;;;;;5053799;28;20041;-42
2023/01/10 09:23:22;;;;;;;3.38;1.90;;;;;;;;;;5053844;28;20020;-42
2023/01/10 09:25:49;;;;;;;5.60;2.92;;;;;;;;;;5053894;28;20094;-42
2023/01/10 09:28:15;;;;;;;3.15;2.10;;;;;;;;;;5053971;28;20048;-42
2023/01/10 09:30:41;;;;;;;2.72;1.50;;;;;;;;;;5053791;28;20083;-42
2023/01/10 09:33:06;;;;;;;5.10;1.92;;;;;;;;;;5053595;28;20021;-41
2023/01/10 09:35:34;;;;;;;3.05;2.00;;;;;;;;;;5053549;28;20056;-42
2023/01/10 09:38:00;;;;;;;3.80;2.03;;;;;;;;;;5053336;28;20021;-42
2023/01/10 09:40:44;;;;;;;1.60;1.38;;;;;;;;;;5053489;28;20112;-41
2023/01/10 09:43:25;;;;;;;2.53;1.67;;;;;;;;;;5053337;28;20755;-42
2023/01/10 09:45:50;;;;;;;2.60;1.85;;;;;;;;;;5053525;28;20450;-42
2023/01/10 09:48:25;;;;;;;4.45;2.50;;;;;;;;;;5034309;28;20053;-42
2023/01/10 09:51:03;;;;;;;4.40;1.98;;;;;;;;;;5053158;28;20048;-42
2023/01/10 09:53:30;;;;;;;3.70;1.83;;;;;;;;;;5053469;28;20021;-42
2023/01/10 09:55:58;;;;;;;2.60;1.52;;;;;;;;;;5053353;28;20029;-42
2023/01/10 09:58:30;;;;;;;2.60;1.23;;;;;;;;;;5053091;28;20037;-42
2023/01/10 10:00:56;;;;;;;3.53;1.40;;;;;;;;;;5052807;28;20499;-42
2023/01/10 10:03:25;;;;;;;2.15;1.20;;;;;;;;;;5053079;28;20041;-42
2023/01/10 10:05:51;;;;;;;3.95;1.95;;;;;;;;;;5052890;28;20468;-42
2023/01/10 10:08:17;;;;;;;3.08;2.13;;;;;;;;;;5052904;28;20075;-42
2023/01/10 10:10:53;;;;;;;2.80;2.00;;;;;;;;;;5053045;28;20056;-41
2023/01/10 10:13:44;;;;;;;4.43;1.65;;;;;;;;;;5051563;28;20064;-42
2023/01/10 10:16:10;;;;;;;3.22;1.85;;;;;;;;;;5052683;28;20057;-42
2023/01/10 10:18:35;;;;;;;3.85;1.40;;;;;;;;;;5052705;28;20094;-42
2023/01/10 10:21:06;;;;;;;5.93;1.67;;;;;;;;;;5052585;28;20033;-41
2023/01/10 10:23:47;;;;;;;1.38;1.17;;;;;;;;;;5052941;28;20101;-42
2023/01/10 10:26:13;;;;;;;1.63;1.52;;;;;;;;;;5052537;28;20115;-41
2023/01/10 10:29:01;;;;;;;4.63;2.45;;;;;;;;;;5052406;28;20021;-42
2023/01/10 10:31:35;;;;;;;3.90;1.63;;;;;;;;;;5052411;28;20076;-42
2023/01/10 10:34:19;;;;;;;3.95;1.50;;;;;;;;;;5052629;28;20387;-41
2023/01/10 10:36:48;;;;;;;3.50;1.58;;;;;;;;;;5052562;28;20440;-42
2023/01/10 10:39:15;;;;;;;1.92;1.27;;;;;;;;;;5052274;28;20033;-42
2023/01/10 10:41:42;;;;;;;1.77;1.10;;;;;;;;;;5052426;28;20021;-41
2023/01/10 10:44:28;;;;;;;1.73;1.40;;;;;;;;;;5052113;28;20036;-42
2023/01/10 10:46:55;;;;;;;4.32;1.90;;;;;;;;;;5047981;28;20056;-41
2023/01/10 10:49:41;;;;;;;3.33;2.03;;;;;;;;;;5052048;28;20029;-41
2023/01/10 10:52:12;;;;;;;1.23;1.10;;;;;;;;;;5052252;28;20108;-42
2023/01/10 10:54:37;;;;;;;0.77;0.77;;;;;;;;;;5052180;28;20041;-42
2023/01/10 10:57:03;;;;;;;2.28;1.35;;;;;;;;;;5051954;28;20031;-41
2023/01/10 10:59:28;;;;;;;7.18;3.40;;;;;;;;;;5051716;28;20502;-42
2023/01/10 11:01:54;;;;;;;1.40;1.30;;;;;;;;;;5050442;28;20491;-41
2023/01/10 11:04:20;;;;;;;1.48;0.80;;;;;;;;;;5052144;28;20048;-41
2023/01/10 11:06:49;;;;;;;1.50;1.35;;;;;;;;;;5050704;28;20036;-42
2023/01/10 11:09:22;;;;;;;1.65;1.10;;;;;;;;;;5051750;28;20033;-42
2023/01/10 11:11:53;;;;;;;3.05;1.48;;;;;;;;;;5051731;28;20608;-42
2023/01/10 11:14:38;;;;;;;2.67;1.45;;;;;;;;;;5051815;28;20100;-42
2023/01/10 11:17:24;;;;;;;3.28;1.40;;;;;;;;;;5051548;28;20032;-42
2023/01/10 11:19:56;;;;;;;2.45;1.35;;;;;;;;;;5051864;28;20025;-42
2023/01/10 11:22:22;;;;;;;2.42;1.33;;;;;;;;;;5051930;28;20155;-42
2023/01/10 11:24:55;;;;;;;2.65;0.90;;;;;;;;;;5051522;28;20115;-41
2023/01/10 11:27:32;;;;;;;1.70;1.23;;;;;;;;;;5050225;28;20028;-42
2023/01/10 11:29:57;;;;;;;2.05;1.30;;;;;;;;;;5051641;28;20036;-42
2023/01/10 11:32:28;;;;;;;1.90;0.73;;;;;;;;;;5051430;28;20047;-42
2023/01/10 11:34:57;;;;;;;1.27;1.10;;;;;;;;;;5051632;28;20033;-41
2023/01/10 11:37:31;;;;;;;4.93;1.10;;;;;;;;;;5051680;28;20025;-41
2023/01/10 11:40:09;;;;;;;2.53;1.05;;;;;;;;;;5051323;28;20041;-42
2023/01/10 11:42:34;;;;;;;2.40;1.27;;;;;;;;;;5051386;28;20025;-41
2023/01/10 11:45:18;;;;;;;2.42;1.40;;;;;;;;;;5049979;28;20647;-41
2023/01/10 11:47:46;;;;;;;1.48;1.20;;;;;;;;;;5050003;28;20025;-42
2023/01/10 11:50:16;;;;;;;1.42;1.23;;;;;;;;;;5051152;28;20025;-42
2023/01/10 11:52:43;;;;;;;1.90;1.60;;;;;;;;;;5051315;28;20033;-42
2023/01/10 11:55:08;;;;;;;1.70;1.08;;;;;;;;;;5051393;28;20021;-41
2023/01/10 11:57:34;;;;;;;2.17;1.35;;;;;;;;;;5051218;28;20033;-43
2023/01/10 11:59:59;;;;;;;1.48;1.15;;;;;;;;;;5051155;28;20024;-42
2023/01/10 12:02:28;;;;;;;2.05;1.02;;;;;;;;;;5051042;28;20065;-42
2023/01/10 12:04:54;;;;;;;4.35;1.10;;;;;;;;;;5051368;28;20029;-42
2023/01/10 12:07:20;;;;;;;2.60;1.92;;;;;;;;;;5051041;28;20710;-42
2023/01/10 12:09:56;;;;;;;2.40;1.83;;;;;;;;;;5051288;28;20036;-42
2023/01/10 12:12:21;;;;;;;1.45;1.05;;;;;;;;;;5052873;28;20037;-41
2023/01/10 12:14:47;;;;;;;1.15;1.05;;;;;;;;;;5055143;28;20032;-41
2023/01/10 12:17:22;;;;;;;1.00;0.90;;;;;;;;;;5054510;28;20037;-41
2023/01/10 12:19:48;;;;;;;1.60;1.27;;;;;;;;;;5055004;28;20767;-42
2023/01/10 12:22:14;;;;;;;1.40;1.30;;;;;;;;;;5054811;28;20475;-41
2023/01/10 12:24:43;;;;;;;1.48;1.13;;;;;;;;;;5055202;28;20139;-41
2023/01/10 12:27:11;;;;;;;7.30;1.08;;;;;;;;;;5055108;28;20070;-41
2023/01/10 12:29:40;;;;;;;1.42;1.17;;;;;;;;;;5053508;28;20112;-41
2023/01/10 12:32:10;;;;;;;0.93;0.93;;;;;;;;;;5053599;28;20522;-42
2023/01/10 12:34:40;;;;;;;1.83;1.35;;;;;;;;;;5054868;28;20032;-42
2023/01/10 12:37:13;;;;;;;2.05;1.23;;;;;;;;;;5054800;28;20044;-42
2023/01/10 12:39:42;;;;;;;2.45;1.20;;;;;;;;;;5054652;28;20493;-42
2023/01/10 12:45:11;;;;;;;1.67;1.38;;;;;;;;;;5054816;28;20372;-42
2023/01/10 12:47:37;;;;;;;3.70;1.40;;;;;;;;;;5053251;28;20037;-42
2023/01/10 12:50:12;;;;;;;2.25;1.77;;;;;;;;;;5054267;28;20055;-42
2023/01/10 12:52:55;;;;;;;1.40;0.70;;;;;;;;;;5054472;28;20044;-41
2023/01/10 12:55:22;;;;;;;0.75;0.70;;;;;;;;;;5053100;28;20025;-41
2023/01/10 12:57:52;;;;;;;2.13;1.40;;;;;;;;;;5054307;28;20032;-41
2023/01/10 13:00:20;;;;;;;1.92;1.10;;;;;;;;;;5054376;28;20033;-42
2023/01/10 13:02:46;;;;;;;3.20;0.93;;;;;;;;;;5054049;28;20049;-42
2023/01/10 13:05:22;;;;;;;1.02;0.93;;;;;;;;;;5054021;28;20378;-42
2023/01/10 13:07:49;;;;;;;3.67;1.77;;;;;;;;;;5054167;28;20498;-42
2023/01/10 13:10:17;;;;;;;2.03;0.98;;;;;;;;;;5054142;28;20040;-42
2023/01/10 13:12:45;;;;;;;2.03;1.00;;;;;;;;;;5054008;28;20067;-42
2023/01/10 13:15:18;;;;;;;1.58;1.42;;;;;;;;;;5053956;28;20463;-42
2023/01/10 13:17:45;;;;;;;2.03;1.48;;;;;;;;;;5053950;28;20047;-41
2023/01/10 13:20:20;;;;;;;0.50;0.50;;;;;;;;;;5053752;28;20017;-42
2023/01/10 13:22:47;;;;;;;1.23;1.05;;;;;;;;;;5053655;28;20033;-45
2023/01/10 13:25:23;;;;;;;1.45;0.90;;;;;;;;;;5053719;28;20029;-41
2023/01/10 13:28:02;;;;;;;1.40;0.88;;;;;;;;;;5052430;28;20025;-41
2023/01/10 13:30:31;;;;;;;1.85;1.30;;;;;;;;;;5053530;28;20041;-41
2023/01/10 13:33:07;;;;;;;3.85;2.22;;;;;;;;;;5053506;28;20059;-42
2023/01/10 13:35:37;;;;;;;1.80;1.17;;;;;;;;;;5053873;28;20051;-42
2023/01/10 13:38:03;;;;;;;1.88;0.93;;;;;;;;;;5053762;28;20028;-42
2023/01/10 13:40:30;;;;;;;1.52;0.88;;;;;;;;;;5053499;28;20033;-42
2023/01/10 13:43:17;;;;;;;1.58;1.08;;;;;;;;;;5053560;28;20021;-41
2023/01/10 13:45:43;;;;;;;1.70;1.23;;;;;;;;;;5053671;28;20036;-42
2023/01/10 13:48:38;;;;;;;1.98;1.40;;;;;;;;;;5053488;28;20027;-42
2023/01/10 13:51:24;;;;;;;3.45;1.85;;;;;;;;;;5048068;28;20053;-42
2023/01/10 13:53:53;;;;;;;1.20;0.95;;;;;;;;;;5053552;28;20060;-42
2023/01/10 13:56:32;;;;;;;1.92;1.13;;;;;;;;;;5052903;28;20021;-42
2023/01/10 14:04:36;;;;;;;2.28;1.60;;;;;;;;;;5053087;28;20032;-41
2023/01/10 14:07:24;;;;;;;1.80;1.27;;;;;;;;;;5053230;28;20426;-42
2023/01/10 14:09:50;;;;;;;1.52;1.13;;;;;;;;;;5042259;28;20053;-42
2023/01/10 14:12:22;;;;;;;0.65;0.65;;;;;;;;;;5052880;28;20027;-41
2023/01/10 14:15:10;;;;;;;4.03;1.23;;;;;;;;;;5052806;28;20033;-42
2023/01/10 14:17:36;;;;;;;2.45;1.13;;;;;;;;;;5049618;28;20037;-42
2023/01/10 14:20:13;;;;;;;2.28;1.52;;;;;;;;;;5052713;28;20494;-42
2023/01/10 14:22:40;;;;;;;2.75;0.98;;;;;;;;;;5052649;28;20025;-42
2023/01/10 14:25:14;;;;;;;1.60;1.17;;;;;;;;;;5052602;28;20052;-42
2023/01/10 14:27:45;;;;;;;2.70;1.10;;;;;;;;;;5052624;28;20479;-42
2023/01/10 14:30:18;;;;;;;1.55;1.00;;;;;;;;;;5052471;28;20033;-41
2023/01/10 14:32:46;;;;;;;1.40;1.25;;;;;;;;;;5052817;28;20072;-41
2023/01/10 14:35:17;;;;;;;0.90;0.85;;;;;;;;;;5052068;28;20035;-41
2023/01/10 14:37:45;;;;;;;0.93;0.90;;;;;;;;;;5052474;28;20090;-41
2023/01/10 14:40:16;;;;;;;1.35;0.88;;;;;;;;;;5051051;28;20115;-42
2023/01/10 14:42:42;;;;;;;2.63;1.20;;;;;;;;;;5052329;28;20033;-41
2023/01/10 14:45:28;;;;;;;0.90;0.65;;;;;;;;;;5052085;28;20031;-41
2023/01/10 14:47:54;;;;;;;0.93;0.60;;;;;;;;;;5051902;28;20056;-42
2023/01/10 14:50:23;;;;;;;2.03;1.00;;;;;;;;;;5052072;28;20036;-42
2023/01/10 14:52:48;;;;;;;3.80;2.15;;;;;;;;;;5052416;28;20098;-42
2023/01/10 14:55:16;;;;;;;2.70;1.55;;;;;;;;;;5051972;28;20017;-42
2023/01/10 14:57:55;;;;;;;2.75;1.13;;;;;;;;;;5052143;28;20025;-41
2023/01/10 15:00:24;;;;;;;0.93;0.82;;;;;;;;;;5052136;28;20045;-42
2023/01/10 15:02:49;;;;;;;2.38;1.33;;;;;;;;;;5051874;28;20053;-41
2023/01/10 15:05:18;;;;;;;1.48;0.50;;;;;;;;;;5051773;28;20111;-42